createdAt,value
2018-09-19T00:02:02.871Z,17.43
2018-09-19T00:04:31.498Z,17.36
2018-09-19T00:07:00.299Z,17.35
2018-09-19T00:09:28.925Z,17.27
2018-09-19T00:11:57.501Z,17.26
2018-09-19T00:14:26.037Z,17.30
2018-09-19T00:16:54.732Z,17.24
2018-09-19T00:19:23.409Z,17.22
2018-09-19T00:21:53.496Z,17.23
2018-09-19T00:24:22.139Z,17.23
2018-09-19T00:26:50.700Z,17.24
2018-09-19T00:29:19.332Z,17.27
2018-09-19T00:31:48.188Z,17.30
2018-09-19T00:34:16.837Z,17.19
2018-09-19T00:36:45.392Z,17.20
2018-09-19T00:39:14.155Z,17.25
2018-09-19T00:41:42.821Z,17.30
2018-09-19T00:44:11.396Z,17.24
2018-09-19T00:46:39.955Z,17.24
2018-09-19T00:49:08.525Z,17.28
2018-09-19T00:51:37.158Z,17.28
2018-09-19T00:54:05.734Z,17.29
2018-09-19T00:56:34.525Z,17.27
2018-09-19T00:59:03.331Z,17.23
2018-09-19T01:01:32.024Z,17.13
2018-09-19T01:04:00.607Z,17.13
2018-09-19T01:06:29.243Z,17.10
2018-09-19T01:08:58.056Z,17.04
2018-09-19T01:11:26.637Z,16.97
2018-09-19T01:13:55.258Z,16.99
2018-09-19T01:16:24.225Z,17.00
2018-09-19T01:18:52.803Z,16.96
2018-09-19T01:21:21.337Z,16.93
2018-09-19T01:23:49.878Z,16.94
2018-09-19T01:26:18.548Z,16.93
2018-09-19T01:28:47.097Z,16.91
2018-09-19T01:31:16.504Z,16.84
2018-09-19T01:33:45.877Z,16.84
2018-09-19T01:36:14.637Z,16.83
2018-09-19T01:38:43.197Z,16.87
2018-09-19T01:41:11.948Z,16.88
2018-09-19T01:43:40.507Z,16.93
2018-09-19T01:46:09.072Z,16.92
2018-09-19T01:48:37.764Z,16.88
2018-09-19T01:51:06.347Z,16.87
2018-09-19T01:53:34.885Z,16.82
2018-09-19T01:56:03.425Z,16.81
2018-09-19T01:58:31.959Z,16.70
2018-09-19T02:01:00.511Z,16.70
2018-09-19T02:03:29.064Z,16.71
2018-09-19T02:05:57.732Z,16.63
2018-09-19T02:08:26.336Z,16.65
2018-09-19T02:10:54.875Z,16.59
2018-09-19T02:13:23.412Z,16.60
2018-09-19T02:15:52.008Z,16.59
2018-09-19T02:18:20.543Z,16.52
2018-09-19T02:20:49.131Z,16.38
2018-09-19T02:23:17.846Z,16.34
2018-09-19T02:25:46.395Z,16.34
2018-09-19T02:28:15.025Z,16.40
2018-09-19T02:30:43.550Z,16.35
2018-09-19T02:33:12.115Z,16.33
2018-09-19T02:35:40.720Z,16.33
2018-09-19T02:38:09.284Z,16.33
2018-09-19T02:40:37.884Z,16.22
2018-09-19T02:43:06.454Z,16.25
2018-09-19T02:45:35.002Z,16.16
2018-09-19T02:48:03.665Z,16.22
2018-09-19T02:50:32.249Z,16.20
2018-09-19T02:53:00.793Z,16.21
2018-09-19T02:55:29.341Z,16.18
2018-09-19T02:57:57.952Z,16.19
2018-09-19T03:00:26.506Z,16.13
2018-09-19T03:02:55.049Z,16.12
2018-09-19T03:05:23.598Z,16.17
2018-09-19T03:07:52.190Z,16.19
2018-09-19T03:10:20.742Z,16.18
2018-09-19T03:12:49.329Z,16.15
2018-09-19T03:15:20.199Z,16.15
2018-09-19T03:17:48.930Z,16.08
2018-09-19T03:20:17.413Z,16.02
2018-09-19T03:22:45.985Z,15.97
2018-09-19T03:25:14.669Z,15.99
2018-09-19T03:27:43.217Z,16.00
2018-09-19T03:30:11.781Z,16.02
2018-09-19T03:32:40.324Z,16.02
2018-09-19T03:35:08.908Z,16.03
2018-09-19T03:37:37.564Z,16.01
2018-09-19T03:40:06.278Z,16.02
2018-09-19T03:42:34.828Z,16.02
2018-09-19T03:45:03.418Z,15.99
2018-09-19T03:47:31.965Z,15.99
2018-09-19T03:50:00.591Z,15.97
2018-09-19T03:52:29.182Z,15.99
2018-09-19T03:54:57.728Z,15.97
2018-09-19T03:57:26.331Z,15.97
2018-09-19T03:59:55.684Z,15.97
2018-09-19T04:02:24.296Z,15.98
2018-09-19T04:04:52.847Z,15.88
2018-09-19T04:07:21.379Z,15.92
2018-09-19T04:09:49.936Z,15.93
2018-09-19T04:12:18.560Z,15.90
2018-09-19T04:14:47.186Z,15.93
2018-09-19T04:17:15.791Z,15.90
2018-09-19T04:19:44.332Z,15.91
2018-09-19T04:22:12.875Z,15.95
2018-09-19T04:24:41.576Z,15.92
2018-09-19T04:27:10.144Z,15.92
2018-09-19T04:29:38.684Z,15.96
2018-09-19T04:32:07.352Z,16.00
2018-09-19T04:34:35.915Z,15.96
2018-09-19T04:37:05.381Z,15.95
2018-09-19T04:39:33.979Z,16.02
2018-09-19T04:42:02.585Z,16.07
2018-09-19T04:44:31.153Z,16.10
2018-09-19T04:49:50.162Z,16.09
2018-09-19T04:52:18.929Z,16.11
2018-09-19T04:54:47.693Z,16.09
2018-09-19T04:57:16.355Z,16.15
2018-09-19T04:59:44.920Z,16.20
2018-09-19T05:02:13.457Z,16.27
2018-09-19T05:04:41.989Z,16.36
2018-09-19T05:12:51.852Z,16.56
2018-09-19T05:15:20.408Z,16.69
2018-09-19T05:17:48.941Z,16.77
2018-09-19T05:20:17.529Z,16.83
2018-09-19T05:22:46.154Z,16.85
2018-09-19T05:25:14.845Z,16.93
2018-09-19T05:27:43.401Z,16.96
2018-09-19T05:30:12.772Z,17.05
2018-09-19T05:32:42.142Z,17.16
2018-09-19T05:35:10.832Z,17.24
2018-09-19T05:37:39.389Z,17.28
2018-09-19T05:40:07.959Z,17.33
2018-09-19T05:42:36.501Z,17.38
2018-09-19T05:45:05.339Z,17.40
2018-09-19T05:47:33.887Z,17.43
2018-09-19T05:50:02.484Z,17.48
2018-09-19T05:52:31.033Z,17.54
2018-09-19T05:54:59.593Z,17.61
2018-09-19T05:57:28.539Z,17.66
2018-09-19T05:59:57.116Z,17.79
2018-09-19T06:02:25.647Z,17.88
2018-09-19T06:04:54.289Z,17.95
2018-09-19T06:07:22.773Z,17.99
2018-09-19T06:09:51.411Z,18.07
2018-09-19T06:12:20.006Z,18.15
2018-09-19T06:14:48.597Z,18.21
2018-09-19T06:17:18.205Z,18.24
2018-09-19T06:19:46.772Z,18.29
2018-09-19T06:22:15.358Z,18.33
2018-09-19T06:24:43.932Z,18.44
2018-09-19T06:27:13.656Z,18.51
2018-09-19T06:29:42.210Z,18.59
2018-09-19T06:32:10.789Z,18.62
2018-09-19T06:34:39.526Z,18.68
2018-09-19T06:37:08.137Z,18.79
2018-09-19T06:39:36.790Z,18.81
2018-09-19T06:42:05.328Z,18.91
2018-09-19T06:44:33.923Z,18.98
2018-09-19T06:47:02.530Z,19.06
2018-09-19T06:49:31.217Z,19.11
2018-09-19T06:51:59.877Z,19.18
2018-09-19T06:54:28.555Z,19.18
2018-09-19T06:56:57.180Z,19.13
2018-09-19T06:59:25.826Z,19.25
2018-09-19T07:01:54.415Z,19.34
2018-09-19T07:04:22.972Z,19.45
2018-09-19T07:06:52.685Z,19.56
2018-09-19T07:09:21.228Z,19.60
2018-09-19T07:11:49.790Z,19.69
2018-09-19T07:14:18.381Z,19.69
2018-09-19T07:16:46.948Z,19.76
2018-09-19T07:22:17.974Z,19.88
2018-09-19T07:24:46.548Z,19.84
2018-09-19T07:27:15.139Z,19.88
2018-09-19T07:29:43.689Z,19.93
2018-09-19T07:32:12.266Z,19.98
2018-09-19T07:34:40.875Z,20.04
2018-09-19T07:37:09.462Z,20.00
2018-09-19T07:39:38.028Z,20.10
2018-09-19T07:42:06.640Z,20.15
2018-09-19T07:44:35.188Z,20.20
2018-09-19T07:47:03.785Z,20.22
2018-09-19T07:49:32.330Z,20.15
2018-09-19T07:52:00.899Z,20.22
2018-09-19T07:54:29.508Z,20.32
2018-09-19T07:56:58.014Z,20.31
2018-09-19T07:59:26.767Z,20.30
2018-09-19T08:01:55.299Z,20.26
2018-09-19T08:04:23.950Z,20.16
2018-09-19T08:06:52.524Z,20.08
2018-09-19T08:09:21.174Z,20.03
2018-09-19T08:11:49.727Z,20.03
2018-09-19T08:14:18.261Z,19.94
2018-09-19T08:16:46.852Z,20.02
2018-09-19T08:19:15.456Z,20.09
2018-09-19T08:21:44.020Z,20.16
2018-09-19T08:24:12.546Z,20.18
2018-09-19T08:26:41.084Z,20.17
2018-09-19T08:29:09.726Z,20.20
2018-09-19T08:31:38.318Z,20.25
2018-09-19T08:34:06.881Z,20.28
2018-09-19T08:36:35.436Z,20.35
2018-09-19T08:39:06.170Z,20.33
2018-09-19T08:41:34.818Z,20.26
2018-09-19T08:44:03.377Z,20.32
2018-09-19T08:46:32.008Z,20.38
2018-09-19T08:49:00.559Z,20.46
2018-09-19T08:51:29.103Z,20.54
2018-09-19T08:53:57.652Z,20.58
2018-09-19T08:56:26.204Z,20.60
2018-09-19T08:58:55.163Z,20.65
2018-09-19T09:01:23.712Z,20.67
2018-09-19T09:03:52.293Z,20.68
2018-09-19T09:06:20.821Z,20.74
2018-09-19T09:08:49.360Z,20.84
2018-09-19T09:11:18.075Z,20.93
2018-09-19T09:13:46.690Z,20.96
2018-09-19T09:16:15.302Z,21.01
2018-09-19T09:18:43.973Z,21.05
2018-09-19T09:21:12.639Z,21.14
2018-09-19T09:23:42.106Z,21.17
2018-09-19T09:26:13.995Z,21.14
2018-09-19T09:28:42.507Z,21.25
2018-09-19T09:31:11.374Z,21.38
2018-09-19T09:33:39.941Z,21.39
2018-09-19T09:36:08.513Z,21.57
2018-09-19T09:38:37.081Z,21.83
2018-09-19T09:41:05.771Z,22.12
2018-09-19T09:43:34.373Z,22.43
2018-09-19T09:46:02.947Z,22.72
2018-09-19T09:48:31.541Z,23.12
2018-09-19T09:51:00.166Z,23.46
2018-09-19T09:53:28.893Z,23.83
2018-09-19T09:55:57.691Z,24.26
2018-09-19T09:58:26.272Z,24.74
2018-09-19T10:00:55.127Z,25.10
2018-09-19T10:03:23.639Z,25.64
2018-09-19T10:05:52.192Z,26.10
2018-09-19T10:08:20.748Z,26.33
2018-09-19T10:10:49.663Z,26.78
2018-09-19T10:13:18.326Z,27.20
2018-09-19T10:15:46.864Z,27.42
2018-09-19T10:18:15.392Z,27.82
2018-09-19T10:20:43.990Z,28.18
2018-09-19T10:23:12.633Z,28.52
2018-09-19T10:25:41.408Z,28.69
2018-09-19T10:28:09.929Z,28.94
2018-09-19T10:30:38.502Z,29.57
2018-09-19T10:33:07.333Z,29.63
2018-09-19T10:35:36.016Z,29.87
2018-09-19T10:38:04.588Z,30.20
2018-09-19T10:40:33.160Z,30.08
2018-09-19T10:43:01.728Z,30.25
2018-09-19T10:45:30.331Z,30.52
2018-09-19T10:47:58.864Z,30.62
2018-09-19T10:50:27.490Z,30.71
2018-09-19T10:52:56.047Z,30.47
2018-09-19T10:55:25.321Z,30.92
2018-09-19T10:57:53.890Z,30.98
2018-09-19T11:00:22.465Z,30.99
2018-09-19T11:02:51.030Z,31.23
2018-09-19T11:05:19.781Z,30.87
2018-09-19T11:07:48.352Z,30.60
2018-09-19T11:10:16.898Z,30.44
2018-09-19T11:12:45.476Z,29.60
2018-09-19T11:15:14.190Z,29.23
2018-09-19T11:17:42.798Z,28.85
2018-09-19T11:20:11.355Z,28.30
2018-09-19T11:22:39.926Z,28.20
2018-09-19T11:25:08.532Z,28.03
2018-09-19T11:27:37.082Z,28.14
2018-09-19T11:30:06.192Z,27.89
2018-09-19T11:32:34.787Z,27.71
2018-09-19T11:35:03.437Z,27.82
2018-09-19T11:37:32.150Z,27.84
2018-09-19T11:40:00.712Z,27.98
2018-09-19T11:45:19.988Z,28.06
2018-09-19T11:47:48.516Z,28.38
2018-09-19T11:50:17.100Z,28.46
2018-09-19T11:52:45.658Z,27.95
2018-09-19T11:55:15.381Z,27.67
2018-09-19T11:57:44.106Z,27.48
2018-09-19T12:00:13.061Z,27.54
2018-09-19T12:02:41.668Z,27.63
2018-09-19T12:05:11.061Z,27.73
2018-09-19T12:07:39.928Z,27.84
2018-09-19T12:10:08.607Z,28.03
2018-09-19T12:12:38.090Z,28.32
2018-09-19T12:15:06.997Z,28.67
2018-09-19T12:17:35.841Z,28.78
2018-09-19T12:20:04.512Z,29.10
2018-09-19T12:22:33.265Z,28.81
2018-09-19T12:25:01.845Z,28.34
2018-09-19T12:27:30.392Z,28.28
2018-09-19T12:29:58.976Z,28.56
2018-09-19T12:32:27.947Z,28.32
2018-09-19T12:34:56.556Z,28.26
2018-09-19T12:37:25.322Z,28.37
2018-09-19T12:39:53.924Z,28.79
2018-09-19T12:42:22.472Z,28.46
2018-09-19T12:44:51.000Z,28.78
2018-09-19T12:47:19.998Z,29.09
2018-09-19T12:49:48.903Z,28.98
2018-09-19T12:52:17.440Z,29.21
2018-09-19T12:54:46.023Z,29.43
2018-09-19T12:57:14.751Z,29.48
2018-09-19T12:59:43.336Z,29.64
2018-09-19T13:02:11.938Z,29.70
2018-09-19T13:04:40.473Z,29.93
2018-09-19T13:07:09.083Z,29.79
2018-09-19T13:09:37.738Z,29.16
2018-09-19T13:12:06.315Z,29.35
2018-09-19T13:14:34.884Z,29.44
2018-09-19T13:17:03.480Z,29.61
2018-09-19T13:19:32.080Z,29.94
2018-09-19T13:22:00.657Z,29.91
2018-09-19T13:24:29.180Z,29.98
2018-09-19T13:26:57.750Z,30.07
2018-09-19T13:29:26.412Z,29.89
2018-09-19T13:31:55.258Z,29.86
2018-09-19T13:34:23.873Z,29.87
2018-09-19T13:36:52.508Z,30.09
2018-09-19T13:39:21.080Z,30.11
2018-09-19T13:41:49.648Z,30.37
2018-09-19T13:44:18.420Z,30.11
2018-09-19T13:46:47.028Z,29.88
2018-09-19T13:49:34.502Z,29.42
2018-09-19T13:52:03.061Z,29.36
2018-09-19T13:54:31.645Z,29.43
2018-09-19T13:57:00.255Z,29.24
2018-09-19T13:59:28.844Z,28.97
2018-09-19T14:01:58.404Z,28.94
2018-09-19T14:04:27.011Z,29.01
2018-09-19T14:06:55.731Z,28.93
2018-09-19T14:09:24.301Z,29.04
2018-09-19T14:11:52.978Z,29.00
2018-09-19T14:14:21.549Z,28.96
2018-09-19T14:16:50.311Z,28.87
2018-09-19T14:19:19.024Z,28.74
2018-09-19T14:21:47.795Z,28.67
2018-09-19T14:24:16.756Z,28.71
2018-09-19T14:26:45.499Z,28.79
2018-09-19T14:29:14.143Z,28.94
2018-09-19T14:31:42.747Z,28.93
2018-09-19T14:34:11.377Z,28.84
2018-09-19T14:36:39.937Z,28.88
2018-09-19T14:39:08.957Z,28.91
2018-09-19T14:41:37.591Z,28.91
2018-09-19T14:44:06.221Z,28.88
2018-09-19T14:46:34.790Z,28.81
2018-09-19T14:49:03.538Z,28.87
2018-09-19T14:51:32.113Z,28.94
2018-09-19T14:54:00.760Z,28.83
2018-09-19T14:56:29.615Z,28.64
2018-09-19T14:58:58.157Z,28.21
2018-09-19T15:01:26.721Z,27.98
2018-09-19T15:03:55.316Z,27.98
2018-09-19T15:06:23.918Z,28.21
2018-09-19T15:08:52.497Z,28.45
2018-09-19T15:11:21.140Z,28.38
2018-09-19T15:13:49.724Z,28.28
2018-09-19T15:16:18.329Z,28.06
2018-09-19T15:18:46.986Z,28.04
2018-09-19T15:21:15.629Z,28.02
2018-09-19T15:23:44.229Z,28.28
2018-09-19T15:26:12.860Z,28.68
2018-09-19T15:28:41.479Z,29.36
2018-09-19T15:31:10.075Z,30.46
2018-09-19T15:33:38.649Z,31.76
2018-09-19T15:36:07.348Z,32.99
2018-09-19T15:38:36.028Z,34.27
2018-09-19T15:41:04.644Z,34.95
2018-09-19T15:43:33.203Z,35.18
2018-09-19T15:46:01.812Z,35.47
2018-09-19T15:48:30.352Z,35.20
2018-09-19T15:50:58.960Z,35.10
2018-09-19T15:53:30.931Z,34.73
2018-09-19T15:56:00.549Z,33.12
2018-09-19T15:58:29.108Z,32.70
2018-09-19T16:00:57.646Z,33.28
2018-09-19T16:03:27.796Z,33.58
2018-09-19T16:05:56.559Z,33.63
2018-09-19T16:08:25.136Z,33.84
2018-09-19T16:10:53.855Z,33.73
2018-09-19T16:13:22.527Z,33.33
2018-09-19T16:15:51.104Z,31.56
